sensor_id;sensor_type;location;lat;lon;timestamp;temperature;humidity
8979;DHT22;4524;51.364;5.448;2023-07-09T00:02:18;23.20;97.90
8979;DHT22;4524;51.364;5.448;2023-07-09T00:04:46;23.10;97.20
8979;DHT22;4524;51.364;5.448;2023-07-09T00:07:18;23.20;97.20
8979;DHT22;4524;51.364;5.448;2023-07-09T00:09:46;23.10;97.10
8979;DHT22;4524;51.364;5.448;2023-07-09T00:12:17;23.10;97.00
8979;DHT22;4524;51.364;5.448;2023-07-09T00:14:45;23.10;97.20
8979;DHT22;4524;51.364;5.448;2023-07-09T00:17:20;23.10;97.20
8979;DHT22;4524;51.364;5.448;2023-07-09T00:19:49;23.00;97.30
8979;DHT22;4524;51.364;5.448;2023-07-09T00:22:19;23.00;97.30
8979;DHT22;4524;51.364;5.448;2023-07-09T00:24:50;23.00;97.70
8979;DHT22;4524;51.364;5.448;2023-07-09T00:27:21;23.00;97.60
8979;DHT22;4524;51.364;5.448;2023-07-09T00:29:50;23.00;97.70
8979;DHT22;4524;51.364;5.448;2023-07-09T00:32:20;23.00;98.00
8979;DHT22;4524;51.364;5.448;2023-07-09T00:35:07;22.80;98.10
8979;DHT22;4524;51.364;5.448;2023-07-09T00:37:35;22.80;98.20
8979;DHT22;4524;51.364;5.448;2023-07-09T00:40:04;22.80;98.30
8979;DHT22;4524;51.364;5.448;2023-07-09T00:42:34;22.80;98.50
8979;DHT22;4524;51.364;5.448;2023-07-09T00:45:17;22.80;98.60
8979;DHT22;4524;51.364;5.448;2023-07-09T00:48:06;22.70;98.80
8979;DHT22;4524;51.364;5.448;2023-07-09T00:50:37;22.60;99.10
8979;DHT22;4524;51.364;5.448;2023-07-09T00:53:13;22.60;99.00
8979;DHT22;4524;51.364;5.448;2023-07-09T00:55:51;22.60;99.00
8979;DHT22;4524;51.364;5.448;2023-07-09T00:58:22;22.60;99.10
8979;DHT22;4524;51.364;5.448;2023-07-09T01:00:56;22.50;99.20
8979;DHT22;4524;51.364;5.448;2023-07-09T01:03:32;22.50;99.20
8979;DHT22;4524;51.364;5.448;2023-07-09T01:06:02;22.50;99.90
8979;DHT22;4524;51.364;5.448;2023-07-09T01:08:33;22.50;99.80
8979;DHT22;4524;51.364;5.448;2023-07-09T01:11:02;22.50;99.90
8979;DHT22;4524;51.364;5.448;2023-07-09T01:13:31;22.50;99.90
8979;DHT22;4524;51.364;5.448;2023-07-09T01:16:02;22.40;99.90
8979;DHT22;4524;51.364;5.448;2023-07-09T01:18:30;22.40;99.90
8979;DHT22;4524;51.364;5.448;2023-07-09T01:21:02;22.40;99.90
8979;DHT22;4524;51.364;5.448;2023-07-09T01:23:31;22.40;99.90
8979;DHT22;4524;51.364;5.448;2023-07-09T01:26:21;22.40;99.90
8979;DHT22;4524;51.364;5.448;2023-07-09T01:28:52;22.40;99.90
8979;DHT22;4524;51.364;5.448;2023-07-09T01:31:21;22.40;99.90
8979;DHT22;4524;51.364;5.448;2023-07-09T01:33:50;22.40;99.90
8979;DHT22;4524;51.364;5.448;2023-07-09T01:36:21;22.40;99.90
8979;DHT22;4524;51.364;5.448;2023-07-09T01:38:51;22.40;99.90
8979;DHT22;4524;51.364;5.448;2023-07-09T01:41:20;22.40;99.90
8979;DHT22;4524;51.364;5.448;2023-07-09T01:43:50;22.40;99.90
8979;DHT22;4524;51.364;5.448;2023-07-09T01:46:20;22.40;99.90
8979;DHT22;4524;51.364;5.448;2023-07-09T01:48:48;22.40;99.90
8979;DHT22;4524;51.364;5.448;2023-07-09T01:51:21;22.40;99.90
8979;DHT22;4524;51.364;5.448;2023-07-09T01:53:51;22.40;99.90
8979;DHT22;4524;51.364;5.448;2023-07-09T01:56:20;22.40;99.90
8979;DHT22;4524;51.364;5.448;2023-07-09T01:58:49;22.30;99.90
8979;DHT22;4524;51.364;5.448;2023-07-09T02:01:17;22.30;99.90
8979;DHT22;4524;51.364;5.448;2023-07-09T02:03:46;22.30;99.90
8979;DHT22;4524;51.364;5.448;2023-07-09T02:06:14;22.40;99.90
8979;DHT22;4524;51.364;5.448;2023-07-09T02:08:46;22.40;99.90
8979;DHT22;4524;51.364;5.448;2023-07-09T02:11:14;22.40;99.90
8979;DHT22;4524;51.364;5.448;2023-07-09T02:13:44;22.40;99.90
8979;DHT22;4524;51.364;5.448;2023-07-09T02:16:12;22.40;99.90
8979;DHT22;4524;51.364;5.448;2023-07-09T02:18:40;22.40;99.90
8979;DHT22;4524;51.364;5.448;2023-07-09T02:21:08;22.30;99.90
8979;DHT22;4524;51.364;5.448;2023-07-09T02:23:38;22.30;99.90
8979;DHT22;4524;51.364;5.448;2023-07-09T02:26:07;22.30;99.90
8979;DHT22;4524;51.364;5.448;2023-07-09T02:28:36;22.20;99.90
8979;DHT22;4524;51.364;5.448;2023-07-09T02:31:05;22.20;99.90
8979;DHT22;4524;51.364;5.448;2023-07-09T02:33:34;22.20;99.90
8979;DHT22;4524;51.364;5.448;2023-07-09T02:36:02;22.10;99.90
8979;DHT22;4524;51.364;5.448;2023-07-09T02:38:31;22.10;99.90
8979;DHT22;4524;51.364;5.448;2023-07-09T02:41:20;22.10;99.90
8979;DHT22;4524;51.364;5.448;2023-07-09T02:43:48;22.00;99.90
8979;DHT22;4524;51.364;5.448;2023-07-09T02:46:18;21.90;99.90
8979;DHT22;4524;51.364;5.448;2023-07-09T02:48:47;21.90;99.90
8979;DHT22;4524;51.364;5.448;2023-07-09T02:51:15;21.90;99.90
8979;DHT22;4524;51.364;5.448;2023-07-09T02:53:43;21.90;99.90
8979;DHT22;4524;51.364;5.448;2023-07-09T02:56:12;21.80;99.90
8979;DHT22;4524;51.364;5.448;2023-07-09T02:58:41;21.80;99.90
8979;DHT22;4524;51.364;5.448;2023-07-09T03:01:09;21.80;99.90
8979;DHT22;4524;51.364;5.448;2023-07-09T03:03:39;21.80;99.90
8979;DHT22;4524;51.364;5.448;2023-07-09T03:06:07;21.80;99.90
8979;DHT22;4524;51.364;5.448;2023-07-09T03:08:36;21.70;99.90
8979;DHT22;4524;51.364;5.448;2023-07-09T03:11:11;21.70;99.90
8979;DHT22;4524;51.364;5.448;2023-07-09T03:13:41;21.70;99.90
8979;DHT22;4524;51.364;5.448;2023-07-09T03:16:10;21.70;99.90
8979;DHT22;4524;51.364;5.448;2023-07-09T03:18:38;21.60;99.90
8979;DHT22;4524;51.364;5.448;2023-07-09T03:21:07;21.60;99.90
8979;DHT22;4524;51.364;5.448;2023-07-09T03:23:35;21.60;99.90
8979;DHT22;4524;51.364;5.448;2023-07-09T03:26:03;21.50;99.90
8979;DHT22;4524;51.364;5.448;2023-07-09T03:28:32;21.50;99.90
8979;DHT22;4524;51.364;5.448;2023-07-09T03:31:02;21.50;99.90
8979;DHT22;4524;51.364;5.448;2023-07-09T03:33:30;21.40;99.90
8979;DHT22;4524;51.364;5.448;2023-07-09T03:35:58;21.30;99.90
8979;DHT22;4524;51.364;5.448;2023-07-09T03:38:27;21.40;99.90
8979;DHT22;4524;51.364;5.448;2023-07-09T03:40:56;21.30;99.90
8979;DHT22;4524;51.364;5.448;2023-07-09T03:43:24;21.30;99.90
8979;DHT22;4524;51.364;5.448;2023-07-09T03:45:52;21.20;99.90
8979;DHT22;4524;51.364;5.448;2023-07-09T03:48:22;21.20;99.90
8979;DHT22;4524;51.364;5.448;2023-07-09T03:50:50;21.20;99.90
8979;DHT22;4524;51.364;5.448;2023-07-09T03:53:18;21.30;99.90
8979;DHT22;4524;51.364;5.448;2023-07-09T03:55:51;21.30;99.90
8979;DHT22;4524;51.364;5.448;2023-07-09T03:58:20;21.40;99.90
8979;DHT22;4524;51.364;5.448;2023-07-09T04:00:48;21.40;99.90
8979;DHT22;4524;51.364;5.448;2023-07-09T04:03:16;21.40;99.90
8979;DHT22;4524;51.364;5.448;2023-07-09T04:06:05;21.50;99.90
8979;DHT22;4524;51.364;5.448;2023-07-09T04:08:33;21.60;99.90
8979;DHT22;4524;51.364;5.448;2023-07-09T04:11:03;21.70;99.90
8979;DHT22;4524;51.364;5.448;2023-07-09T04:13:31;21.80;99.90
8979;DHT22;4524;51.364;5.448;2023-07-09T04:15:59;21.90;99.90
8979;DHT22;4524;51.364;5.448;2023-07-09T04:18:28;21.90;99.90
8979;DHT22;4524;51.364;5.448;2023-07-09T04:20:56;22.00;99.90
8979;DHT22;4524;51.364;5.448;2023-07-09T04:23:26;22.10;99.90
8979;DHT22;4524;51.364;5.448;2023-07-09T04:25:54;22.10;99.90
8979;DHT22;4524;51.364;5.448;2023-07-09T04:28:22;22.00;99.90
8979;DHT22;4524;51.364;5.448;2023-07-09T04:30:51;22.10;99.90
8979;DHT22;4524;51.364;5.448;2023-07-09T04:33:38;22.10;99.90
8979;DHT22;4524;51.364;5.448;2023-07-09T04:36:06;22.20;99.90
8979;DHT22;4524;51.364;5.448;2023-07-09T04:38:37;22.20;99.90
8979;DHT22;4524;51.364;5.448;2023-07-09T04:41:05;22.30;99.90
8979;DHT22;4524;51.364;5.448;2023-07-09T04:43:33;22.40;99.90
8979;DHT22;4524;51.364;5.448;2023-07-09T04:46:01;22.60;99.90
8979;DHT22;4524;51.364;5.448;2023-07-09T04:48:30;22.70;99.90
8979;DHT22;4524;51.364;5.448;2023-07-09T04:50:58;22.80;99.90
8979;DHT22;4524;51.364;5.448;2023-07-09T04:53:26;23.00;99.90
8979;DHT22;4524;51.364;5.448;2023-07-09T04:55:56;23.00;99.90
8979;DHT22;4524;51.364;5.448;2023-07-09T04:58:24;23.00;99.90
8979;DHT22;4524;51.364;5.448;2023-07-09T05:00:52;23.00;99.90
8979;DHT22;4524;51.364;5.448;2023-07-09T05:03:24;23.10;99.90
8979;DHT22;4524;51.364;5.448;2023-07-09T05:05:52;23.20;99.90
8979;DHT22;4524;51.364;5.448;2023-07-09T05:08:20;23.20;99.90
8979;DHT22;4524;51.364;5.448;2023-07-09T05:10:50;23.30;99.90
8979;DHT22;4524;51.364;5.448;2023-07-09T05:13:21;23.40;99.90
8979;DHT22;4524;51.364;5.448;2023-07-09T05:15:49;23.40;99.90
8979;DHT22;4524;51.364;5.448;2023-07-09T05:18:17;23.50;99.90
8979;DHT22;4524;51.364;5.448;2023-07-09T05:20:47;24.00;99.90
8979;DHT22;4524;51.364;5.448;2023-07-09T05:23:15;24.00;99.90
8979;DHT22;4524;51.364;5.448;2023-07-09T05:25:44;24.10;99.90
8979;DHT22;4524;51.364;5.448;2023-07-09T05:28:12;24.00;99.90
8979;DHT22;4524;51.364;5.448;2023-07-09T05:30:43;24.00;99.90
8979;DHT22;4524;51.364;5.448;2023-07-09T05:33:10;24.00;99.90
8979;DHT22;4524;51.364;5.448;2023-07-09T05:35:42;24.00;99.90
8979;DHT22;4524;51.364;5.448;2023-07-09T05:38:10;24.10;99.90
8979;DHT22;4524;51.364;5.448;2023-07-09T05:40:38;24.00;99.90
8979;DHT22;4524;51.364;5.448;2023-07-09T05:43:06;24.10;99.90
8979;DHT22;4524;51.364;5.448;2023-07-09T05:45:35;24.10;99.90
8979;DHT22;4524;51.364;5.448;2023-07-09T05:48:04;24.20;99.90
8979;DHT22;4524;51.364;5.448;2023-07-09T05:50:33;24.30;99.80
8979;DHT22;4524;51.364;5.448;2023-07-09T05:53:01;24.30;99.70
8979;DHT22;4524;51.364;5.448;2023-07-09T05:55:30;24.30;99.90
8979;DHT22;4524;51.364;5.448;2023-07-09T05:57:58;24.30;99.70
8979;DHT22;4524;51.364;5.448;2023-07-09T06:00:27;24.40;99.60
8979;DHT22;4524;51.364;5.448;2023-07-09T06:02:54;24.30;99.30
8979;DHT22;4524;51.364;5.448;2023-07-09T06:05:25;24.40;99.30
8979;DHT22;4524;51.364;5.448;2023-07-09T06:07:53;24.40;99.30
8979;DHT22;4524;51.364;5.448;2023-07-09T06:10:21;24.40;99.10
8979;DHT22;4524;51.364;5.448;2023-07-09T06:12:49;24.40;99.10
8979;DHT22;4524;51.364;5.448;2023-07-09T06:15:17;24.50;99.10
8979;DHT22;4524;51.364;5.448;2023-07-09T06:17:45;24.50;99.00
8979;DHT22;4524;51.364;5.448;2023-07-09T06:20:14;24.50;99.00
8979;DHT22;4524;51.364;5.448;2023-07-09T06:22:43;24.60;98.60
8979;DHT22;4524;51.364;5.448;2023-07-09T06:25:12;24.80;98.90
8979;DHT22;4524;51.364;5.448;2023-07-09T06:27:40;25.00;98.70
8979;DHT22;4524;51.364;5.448;2023-07-09T06:30:09;25.20;98.50
8979;DHT22;4524;51.364;5.448;2023-07-09T06:32:37;25.30;98.20
8979;DHT22;4524;51.364;5.448;2023-07-09T06:35:05;25.40;98.10
8979;DHT22;4524;51.364;5.448;2023-07-09T06:37:33;25.50;97.80
8979;DHT22;4524;51.364;5.448;2023-07-09T06:40:03;25.60;97.60
8979;DHT22;4524;51.364;5.448;2023-07-09T06:42:34;25.70;97.40
8979;DHT22;4524;51.364;5.448;2023-07-09T06:45:15;25.80;97.30
8979;DHT22;4524;51.364;5.448;2023-07-09T06:47:43;25.90;97.20
8979;DHT22;4524;51.364;5.448;2023-07-09T06:50:12;26.00;96.80
8979;DHT22;4524;51.364;5.448;2023-07-09T06:52:40;26.10;96.60
8979;DHT22;4524;51.364;5.448;2023-07-09T06:55:10;26.20;96.10
8979;DHT22;4524;51.364;5.448;2023-07-09T06:57:38;26.30;96.00
8979;DHT22;4524;51.364;5.448;2023-07-09T07:00:07;26.30;95.90
8979;DHT22;4524;51.364;5.448;2023-07-09T07:02:35;26.40;95.90
8979;DHT22;4524;51.364;5.448;2023-07-09T07:05:04;26.50;96.00
8979;DHT22;4524;51.364;5.448;2023-07-09T07:07:32;26.70;96.00
8979;DHT22;4524;51.364;5.448;2023-07-09T07:10:00;26.70;95.70
8979;DHT22;4524;51.364;5.448;2023-07-09T07:12:41;26.80;95.40
8979;DHT22;4524;51.364;5.448;2023-07-09T07:15:10;26.80;95.00
8979;DHT22;4524;51.364;5.448;2023-07-09T07:17:39;26.80;95.00
8979;DHT22;4524;51.364;5.448;2023-07-09T07:20:08;26.90;95.00
8979;DHT22;4524;51.364;5.448;2023-07-09T07:22:38;26.90;94.70
8979;DHT22;4524;51.364;5.448;2023-07-09T07:25:07;27.00;94.90
8979;DHT22;4524;51.364;5.448;2023-07-09T07:27:37;27.00;94.50
8979;DHT22;4524;51.364;5.448;2023-07-09T07:30:07;27.10;94.50
8979;DHT22;4524;51.364;5.448;2023-07-09T07:32:38;27.10;94.40
8979;DHT22;4524;51.364;5.448;2023-07-09T07:35:07;27.10;94.50
8979;DHT22;4524;51.364;5.448;2023-07-09T07:37:35;27.20;94.40
8979;DHT22;4524;51.364;5.448;2023-07-09T07:40:04;27.20;94.60
8979;DHT22;4524;51.364;5.448;2023-07-09T07:42:32;27.30;94.60
8979;DHT22;4524;51.364;5.448;2023-07-09T07:45:02;27.30;94.00
8979;DHT22;4524;51.364;5.448;2023-07-09T07:47:30;27.40;93.80
8979;DHT22;4524;51.364;5.448;2023-07-09T07:50:03;27.40;93.30
8979;DHT22;4524;51.364;5.448;2023-07-09T07:52:32;27.50;93.30
8979;DHT22;4524;51.364;5.448;2023-07-09T07:55:05;27.60;93.20
8979;DHT22;4524;51.364;5.448;2023-07-09T07:57:52;27.60;92.90
8979;DHT22;4524;51.364;5.448;2023-07-09T08:00:21;27.70;92.80
8979;DHT22;4524;51.364;5.448;2023-07-09T08:02:50;27.70;92.80
8979;DHT22;4524;51.364;5.448;2023-07-09T08:05:18;27.80;92.60
8979;DHT22;4524;51.364;5.448;2023-07-09T08:07:46;27.90;92.70
8979;DHT22;4524;51.364;5.448;2023-07-09T08:10:14;27.90;92.50
8979;DHT22;4524;51.364;5.448;2023-07-09T08:12:43;28.00;92.80
8979;DHT22;4524;51.364;5.448;2023-07-09T08:15:11;28.10;92.60
8979;DHT22;4524;51.364;5.448;2023-07-09T08:17:40;28.10;92.50
8979;DHT22;4524;51.364;5.448;2023-07-09T08:20:09;28.20;92.10
8979;DHT22;4524;51.364;5.448;2023-07-09T08:22:38;28.20;92.10
8979;DHT22;4524;51.364;5.448;2023-07-09T08:25:07;28.30;92.30
8979;DHT22;4524;51.364;5.448;2023-07-09T08:27:35;28.40;91.80
8979;DHT22;4524;51.364;5.448;2023-07-09T08:30:04;28.40;94.40
8979;DHT22;4524;51.364;5.448;2023-07-09T08:32:32;28.40;91.40
8979;DHT22;4524;51.364;5.448;2023-07-09T08:35:02;28.50;91.70
8979;DHT22;4524;51.364;5.448;2023-07-09T08:37:50;28.60;91.50
8979;DHT22;4524;51.364;5.448;2023-07-09T08:40:19;28.70;91.40
8979;DHT22;4524;51.364;5.448;2023-07-09T08:42:50;28.70;90.20
8979;DHT22;4524;51.364;5.448;2023-07-09T08:45:36;28.80;90.10
8979;DHT22;4524;51.364;5.448;2023-07-09T08:48:10;28.80;90.30
8979;DHT22;4524;51.364;5.448;2023-07-09T08:50:46;28.90;89.70
8979;DHT22;4524;51.364;5.448;2023-07-09T08:53:19;29.00;89.70
8979;DHT22;4524;51.364;5.448;2023-07-09T08:55:50;29.10;89.30
8979;DHT22;4524;51.364;5.448;2023-07-09T08:58:23;29.20;88.90
8979;DHT22;4524;51.364;5.448;2023-07-09T09:00:54;29.30;88.00
8979;DHT22;4524;51.364;5.448;2023-07-09T09:03:30;29.30;88.20
8979;DHT22;4524;51.364;5.448;2023-07-09T09:06:11;29.40;88.20
8979;DHT22;4524;51.364;5.448;2023-07-09T09:08:41;29.50;87.90
8979;DHT22;4524;51.364;5.448;2023-07-09T09:11:18;29.50;87.70
8979;DHT22;4524;51.364;5.448;2023-07-09T09:13:49;29.50;87.80
8979;DHT22;4524;51.364;5.448;2023-07-09T09:16:39;29.60;86.90
8979;DHT22;4524;51.364;5.448;2023-07-09T09:19:20;29.70;86.30
8979;DHT22;4524;51.364;5.448;2023-07-09T09:21:56;29.70;86.20
8979;DHT22;4524;51.364;5.448;2023-07-09T09:24:30;29.90;87.00
8979;DHT22;4524;51.364;5.448;2023-07-09T09:26:59;30.10;85.80
8979;DHT22;4524;51.364;5.448;2023-07-09T09:29:27;30.20;85.70
8979;DHT22;4524;51.364;5.448;2023-07-09T09:31:57;30.20;85.70
8979;DHT22;4524;51.364;5.448;2023-07-09T09:34:28;30.30;85.30
8979;DHT22;4524;51.364;5.448;2023-07-09T09:36:58;30.30;84.50
8979;DHT22;4524;51.364;5.448;2023-07-09T09:39:26;30.40;83.90
8979;DHT22;4524;51.364;5.448;2023-07-09T09:41:57;30.50;84.30
8979;DHT22;4524;51.364;5.448;2023-07-09T09:44:44;30.50;83.70
8979;DHT22;4524;51.364;5.448;2023-07-09T09:47:33;30.60;83.60
8979;DHT22;4524;51.364;5.448;2023-07-09T09:50:02;30.80;88.90
8979;DHT22;4524;51.364;5.448;2023-07-09T09:52:31;31.00;82.50
8979;DHT22;4524;51.364;5.448;2023-07-09T09:55:10;31.00;88.60
8979;DHT22;4524;51.364;5.448;2023-07-09T09:57:39;31.00;82.20
8979;DHT22;4524;51.364;5.448;2023-07-09T10:00:13;31.10;82.00
8979;DHT22;4524;51.364;5.448;2023-07-09T10:02:43;31.00;81.70
8979;DHT22;4524;51.364;5.448;2023-07-09T10:05:13;31.10;81.80
8979;DHT22;4524;51.364;5.448;2023-07-09T10:07:54;31.20;81.60
8979;DHT22;4524;51.364;5.448;2023-07-09T10:10:28;31.30;80.80
8979;DHT22;4524;51.364;5.448;2023-07-09T10:13:04;31.30;81.80
8979;DHT22;4524;51.364;5.448;2023-07-09T10:15:39;31.60;80.90
8979;DHT22;4524;51.364;5.448;2023-07-09T10:18:17;31.80;86.70
8979;DHT22;4524;51.364;5.448;2023-07-09T10:20:53;31.70;80.30
8979;DHT22;4524;51.364;5.448;2023-07-09T10:23:29;31.80;80.90
8979;DHT22;4524;51.364;5.448;2023-07-09T10:26:02;32.00;79.50
8979;DHT22;4524;51.364;5.448;2023-07-09T10:29:01;32.30;79.60
8979;DHT22;4524;51.364;5.448;2023-07-09T10:31:38;32.50;79.00
8979;DHT22;4524;51.364;5.448;2023-07-09T10:34:16;32.60;78.20
8979;DHT22;4524;51.364;5.448;2023-07-09T10:36:59;32.90;83.80
8979;DHT22;4524;51.364;5.448;2023-07-09T10:39:33;33.20;77.10
8979;DHT22;4524;51.364;5.448;2023-07-09T10:42:02;33.10;75.30
8979;DHT22;4524;51.364;5.448;2023-07-09T10:44:34;33.20;75.10
8979;DHT22;4524;51.364;5.448;2023-07-09T10:47:09;33.20;75.00
8979;DHT22;4524;51.364;5.448;2023-07-09T10:49:41;33.50;75.20
8979;DHT22;4524;51.364;5.448;2023-07-09T10:52:15;33.60;75.20
8979;DHT22;4524;51.364;5.448;2023-07-09T10:54:56;33.80;75.40
8979;DHT22;4524;51.364;5.448;2023-07-09T10:57:29;33.80;75.30
8979;DHT22;4524;51.364;5.448;2023-07-09T10:59:58;33.90;74.40
8979;DHT22;4524;51.364;5.448;2023-07-09T11:02:29;33.60;74.80
8979;DHT22;4524;51.364;5.448;2023-07-09T11:04:59;33.40;74.00
8979;DHT22;4524;51.364;5.448;2023-07-09T11:07:30;33.30;81.30
8979;DHT22;4524;51.364;5.448;2023-07-09T11:10:05;33.40;75.10
8979;DHT22;4524;51.364;5.448;2023-07-09T11:12:38;33.20;74.40
8979;DHT22;4524;51.364;5.448;2023-07-09T11:15:10;33.20;74.50
8979;DHT22;4524;51.364;5.448;2023-07-09T11:17:42;33.30;74.90
8979;DHT22;4524;51.364;5.448;2023-07-09T11:20:18;33.50;81.20
8979;DHT22;4524;51.364;5.448;2023-07-09T11:22:52;33.60;73.50
8979;DHT22;4524;51.364;5.448;2023-07-09T11:25:31;33.70;73.10
8979;DHT22;4524;51.364;5.448;2023-07-09T11:28:04;33.90;72.40
8979;DHT22;4524;51.364;5.448;2023-07-09T11:30:33;34.10;71.70
8979;DHT22;4524;51.364;5.448;2023-07-09T11:33:17;34.30;71.80
8979;DHT22;4524;51.364;5.448;2023-07-09T11:35:52;34.10;69.80
8979;DHT22;4524;51.364;5.448;2023-07-09T11:38:23;34.20;70.00
8979;DHT22;4524;51.364;5.448;2023-07-09T11:40:54;34.20;69.80
8979;DHT22;4524;51.364;5.448;2023-07-09T11:43:28;34.20;68.90
8979;DHT22;4524;51.364;5.448;2023-07-09T11:46:00;34.20;68.60
8979;DHT22;4524;51.364;5.448;2023-07-09T11:48:32;34.20;68.40
8979;DHT22;4524;51.364;5.448;2023-07-09T11:51:06;34.10;69.30
8979;DHT22;4524;51.364;5.448;2023-07-09T11:53:44;34.20;75.70
8979;DHT22;4524;51.364;5.448;2023-07-09T11:56:18;34.10;69.30
8979;DHT22;4524;51.364;5.448;2023-07-09T11:58:50;34.10;70.20
8979;DHT22;4524;51.364;5.448;2023-07-09T12:01:40;34.00;70.30
8979;DHT22;4524;51.364;5.448;2023-07-09T12:04:13;33.70;71.10
8979;DHT22;4524;51.364;5.448;2023-07-09T12:06:42;33.60;71.20
8979;DHT22;4524;51.364;5.448;2023-07-09T12:09:14;33.50;71.60
8979;DHT22;4524;51.364;5.448;2023-07-09T12:11:46;33.30;72.00
8979;DHT22;4524;51.364;5.448;2023-07-09T12:14:16;33.30;73.60
8979;DHT22;4524;51.364;5.448;2023-07-09T12:16:46;33.10;74.60
8979;DHT22;4524;51.364;5.448;2023-07-09T12:19:17;33.00;74.70
8979;DHT22;4524;51.364;5.448;2023-07-09T12:21:48;33.00;74.50
8979;DHT22;4524;51.364;5.448;2023-07-09T12:24:20;32.90;74.10
8979;DHT22;4524;51.364;5.448;2023-07-09T12:26:51;32.70;74.50
8979;DHT22;4524;51.364;5.448;2023-07-09T12:29:23;32.60;74.50
8979;DHT22;4524;51.364;5.448;2023-07-09T12:31:52;32.50;74.50
8979;DHT22;4524;51.364;5.448;2023-07-09T12:34:20;32.40;74.40
8979;DHT22;4524;51.364;5.448;2023-07-09T12:36:49;32.20;74.30
8979;DHT22;4524;51.364;5.448;2023-07-09T12:39:23;32.00;74.00
8979;DHT22;4524;51.364;5.448;2023-07-09T12:41:55;32.00;80.40
8979;DHT22;4524;51.364;5.448;2023-07-09T12:44:24;31.80;74.70
8979;DHT22;4524;51.364;5.448;2023-07-09T12:46:54;31.70;74.40
8979;DHT22;4524;51.364;5.448;2023-07-09T12:49:24;31.60;75.30
8979;DHT22;4524;51.364;5.448;2023-07-09T12:51:54;31.50;75.10
8979;DHT22;4524;51.364;5.448;2023-07-09T12:54:22;31.20;75.80
8979;DHT22;4524;51.364;5.448;2023-07-09T12:56:53;31.20;77.10
8979;DHT22;4524;51.364;5.448;2023-07-09T12:59:24;30.90;78.00
8979;DHT22;4524;51.364;5.448;2023-07-09T13:01:55;30.80;79.10
8979;DHT22;4524;51.364;5.448;2023-07-09T13:04:44;30.60;80.00
8979;DHT22;4524;51.364;5.448;2023-07-09T13:07:29;30.50;80.40
8979;DHT22;4524;51.364;5.448;2023-07-09T13:10:05;30.30;81.40
8979;DHT22;4524;51.364;5.448;2023-07-09T13:12:39;30.20;81.10
8979;DHT22;4524;51.364;5.448;2023-07-09T13:15:20;30.00;81.40
8979;DHT22;4524;51.364;5.448;2023-07-09T13:17:49;29.80;81.90
8979;DHT22;4524;51.364;5.448;2023-07-09T13:20:17;29.80;82.20
8979;DHT22;4524;51.364;5.448;2023-07-09T13:22:45;29.80;82.40
8979;DHT22;4524;51.364;5.448;2023-07-09T13:25:33;29.60;82.70
8979;DHT22;4524;51.364;5.448;2023-07-09T13:28:21;29.50;83.00
8979;DHT22;4524;51.364;5.448;2023-07-09T13:30:51;29.50;83.30
8979;DHT22;4524;51.364;5.448;2023-07-09T13:33:20;29.40;83.50
8979;DHT22;4524;51.364;5.448;2023-07-09T13:35:48;29.30;83.60
8979;DHT22;4524;51.364;5.448;2023-07-09T13:38:21;29.30;84.30
8979;DHT22;4524;51.364;5.448;2023-07-09T13:40:53;29.10;91.00
8979;DHT22;4524;51.364;5.448;2023-07-09T13:43:26;28.80;86.30
8979;DHT22;4524;51.364;5.448;2023-07-09T13:45:55;28.60;87.60
8979;DHT22;4524;51.364;5.448;2023-07-09T13:48:24;28.40;87.50
8979;DHT22;4524;51.364;5.448;2023-07-09T13:50:54;28.00;90.60
8979;DHT22;4524;51.364;5.448;2023-07-09T13:53:40;27.30;92.30
8979;DHT22;4524;51.364;5.448;2023-07-09T13:56:08;27.00;93.70
8979;DHT22;4524;51.364;5.448;2023-07-09T13:58:38;26.80;94.90
8979;DHT22;4524;51.364;5.448;2023-07-09T14:01:11;26.60;95.20
8979;DHT22;4524;51.364;5.448;2023-07-09T14:03:40;26.50;95.60
8979;DHT22;4524;51.364;5.448;2023-07-09T14:06:11;26.40;96.30
8979;DHT22;4524;51.364;5.448;2023-07-09T14:08:39;26.20;97.30
8979;DHT22;4524;51.364;5.448;2023-07-09T14:11:10;26.00;98.50
8979;DHT22;4524;51.364;5.448;2023-07-09T14:13:41;25.70;99.30
8979;DHT22;4524;51.364;5.448;2023-07-09T14:16:10;25.50;99.90
8979;DHT22;4524;51.364;5.448;2023-07-09T14:18:38;25.40;99.90
8979;DHT22;4524;51.364;5.448;2023-07-09T14:21:12;25.80;99.90
8979;DHT22;4524;51.364;5.448;2023-07-09T14:23:40;25.70;99.90
8979;DHT22;4524;51.364;5.448;2023-07-09T14:26:08;25.60;98.90
8979;DHT22;4524;51.364;5.448;2023-07-09T14:28:37;25.60;99.70
8979;DHT22;4524;51.364;5.448;2023-07-09T14:31:17;25.70;99.90
8979;DHT22;4524;51.364;5.448;2023-07-09T14:33:46;25.80;99.70
8979;DHT22;4524;51.364;5.448;2023-07-09T14:36:14;26.00;99.90
8979;DHT22;4524;51.364;5.448;2023-07-09T14:38:43;26.30;99.40
8979;DHT22;4524;51.364;5.448;2023-07-09T14:41:22;26.40;99.60
8979;DHT22;4524;51.364;5.448;2023-07-09T14:43:51;26.60;99.90
8979;DHT22;4524;51.364;5.448;2023-07-09T14:46:21;26.50;98.60
8979;DHT22;4524;51.364;5.448;2023-07-09T14:48:49;26.60;99.30
8979;DHT22;4524;51.364;5.448;2023-07-09T14:51:17;26.60;99.20
8979;DHT22;4524;51.364;5.448;2023-07-09T14:53:46;26.30;98.40
8979;DHT22;4524;51.364;5.448;2023-07-09T14:56:14;26.30;99.10
8979;DHT22;4524;51.364;5.448;2023-07-09T14:58:42;26.20;99.10
8979;DHT22;4524;51.364;5.448;2023-07-09T15:01:11;26.20;99.10
8979;DHT22;4524;51.364;5.448;2023-07-09T15:03:41;26.10;99.30
8979;DHT22;4524;51.364;5.448;2023-07-09T15:06:09;26.00;99.00
8979;DHT22;4524;51.364;5.448;2023-07-09T15:08:37;26.10;99.30
8979;DHT22;4524;51.364;5.448;2023-07-09T15:11:05;26.10;98.90
8979;DHT22;4524;51.364;5.448;2023-07-09T15:13:35;26.20;98.70
8979;DHT22;4524;51.364;5.448;2023-07-09T15:16:04;26.20;98.40
8979;DHT22;4524;51.364;5.448;2023-07-09T15:18:33;26.10;98.80
8979;DHT22;4524;51.364;5.448;2023-07-09T15:21:05;26.00;99.20
8979;DHT22;4524;51.364;5.448;2023-07-09T15:23:36;26.20;99.40
8979;DHT22;4524;51.364;5.448;2023-07-09T15:26:12;26.30;99.70
8979;DHT22;4524;51.364;5.448;2023-07-09T15:28:41;26.50;99.10
8979;DHT22;4524;51.364;5.448;2023-07-09T15:31:10;26.60;98.80
8979;DHT22;4524;51.364;5.448;2023-07-09T15:33:39;26.50;98.90
8979;DHT22;4524;51.364;5.448;2023-07-09T15:36:11;26.50;98.40
8979;DHT22;4524;51.364;5.448;2023-07-09T15:38:39;26.60;98.40
8979;DHT22;4524;51.364;5.448;2023-07-09T15:41:11;26.50;98.50
8979;DHT22;4524;51.364;5.448;2023-07-09T15:43:41;26.40;98.20
8979;DHT22;4524;51.364;5.448;2023-07-09T15:46:15;26.40;99.00
8979;DHT22;4524;51.364;5.448;2023-07-09T15:48:44;26.00;98.90
8979;DHT22;4524;51.364;5.448;2023-07-09T15:51:14;26.20;99.10
8979;DHT22;4524;51.364;5.448;2023-07-09T15:53:42;26.30;99.50
8979;DHT22;4524;51.364;5.448;2023-07-09T15:56:13;26.20;98.60
8979;DHT22;4524;51.364;5.448;2023-07-09T15:58:45;26.20;99.10
8979;DHT22;4524;51.364;5.448;2023-07-09T16:01:15;26.30;99.90
8979;DHT22;4524;51.364;5.448;2023-07-09T16:03:46;26.50;99.10
8979;DHT22;4524;51.364;5.448;2023-07-09T16:06:16;26.50;99.20
8979;DHT22;4524;51.364;5.448;2023-07-09T16:08:45;26.60;98.90
8979;DHT22;4524;51.364;5.448;2023-07-09T16:11:14;26.70;99.10
8979;DHT22;4524;51.364;5.448;2023-07-09T16:13:43;26.90;99.90
8979;DHT22;4524;51.364;5.448;2023-07-09T16:16:13;27.20;98.60
8979;DHT22;4524;51.364;5.448;2023-07-09T16:18:43;27.20;97.90
8979;DHT22;4524;51.364;5.448;2023-07-09T16:21:22;27.00;98.50
8979;DHT22;4524;51.364;5.448;2023-07-09T16:23:52;27.00;98.50
8979;DHT22;4524;51.364;5.448;2023-07-09T16:26:21;27.00;98.40
8979;DHT22;4524;51.364;5.448;2023-07-09T16:28:50;27.00;98.60